Time;durP1;ratioP1;P1;durP2;ratioP2;P2;SDS_P1;SDS_P2;PMS_P1;PMS_P2;Temp;Humidity;BMP_temperature;BMP_pressure;BME280_temperature;BME280_humidity;BME280_pressure;Samples;Min_cycle;Max_cycle;Signal;HPM_P1;HPM_P2
2022/06/18 00:01:37;;;;;;;12.25;3.88;;;18.90;99.90;;;;;;5007092;28;20476;-68
2022/06/18 00:04:15;;;;;;;11.63;3.67;;;18.90;99.90;;;;;;5003895;28;20026;-67
2022/06/18 00:06:52;;;;;;;9.80;4.53;;;18.80;99.90;;;;;;5008425;28;20036;-67
2022/06/18 00:09:28;;;;;;;10.43;3.70;;;18.80;99.90;;;;;;5006814;28;20470;-68
2022/06/18 00:14:51;;;;;;;10.00;3.83;;;18.90;99.90;;;;;;4981369;28;20034;-69
2022/06/18 00:17:18;;;;;;;13.50;4.05;;;18.90;99.90;;;;;;5007054;28;20426;-67
2022/06/18 00:19:45;;;;;;;11.27;3.75;;;18.90;99.90;;;;;;5010217;28;20022;-67
2022/06/18 00:22:16;;;;;;;12.40;4.43;;;18.70;99.90;;;;;;5011258;28;20441;-69
2022/06/18 00:24:43;;;;;;;11.48;4.35;;;18.70;99.90;;;;;;5011444;28;20061;-68
2022/06/18 00:27:15;;;;;;;11.20;4.35;;;18.60;99.90;;;;;;5009861;28;20482;-69
2022/06/18 00:29:40;;;;;;;;;;;18.60;99.90;;;;;;5012272;28;20433;-68
2022/06/18 00:32:07;;;;;;;12.27;6.70;;;18.50;99.90;;;;;;5009236;28;20004;-67
2022/06/18 00:34:33;;;;;;;16.35;8.50;;;18.50;99.90;;;;;;5001978;28;20112;-68
2022/06/18 00:36:59;;;;;;;18.02;7.15;;;18.40;99.90;;;;;;5010772;28;20220;-67
2022/06/18 00:39:28;;;;;;;11.50;6.63;;;18.40;99.90;;;;;;5012259;28;20115;-68
2022/06/18 00:41:54;;;;;;;10.50;5.75;;;18.50;99.90;;;;;;5007663;28;20112;-67
2022/06/18 00:44:28;;;;;;;15.57;5.40;;;18.40;99.90;;;;;;5008219;28;20054;-68
2022/06/18 00:47:16;;;;;;;7.43;4.30;;;18.40;99.90;;;;;;5012367;28;20030;-67
2022/06/18 00:50:14;;;;;;;15.38;4.78;;;18.40;99.90;;;;;;5010232;28;20510;-67
2022/06/18 00:52:42;;;;;;;11.45;5.35;;;18.30;99.90;;;;;;5001209;28;20575;-67
2022/06/18 00:55:25;;;;;;;10.43;4.95;;;18.20;99.90;;;;;;5007166;28;20028;-67
2022/06/18 00:58:07;;;;;;;7.47;4.68;;;18.10;99.90;;;;;;5010524;28;20061;-68
2022/06/18 01:00:42;;;;;;;10.07;4.75;;;18.10;99.90;;;;;;5010907;28;20073;-67
2022/06/18 01:03:28;;;;;;;9.57;3.90;;;18.00;99.90;;;;;;5009637;28;20832;-67
2022/06/18 01:05:56;;;;;;;7.30;3.67;;;18.00;99.90;;;;;;5010735;28;20022;-68
2022/06/18 01:08:25;;;;;;;10.55;4.30;;;18.10;99.90;;;;;;5009757;28;20042;-68
2022/06/18 01:10:59;;;;;;;10.95;4.38;;;18.10;99.90;;;;;;5003737;28;20389;-67
2022/06/18 01:13:34;;;;;;;7.57;3.78;;;18.00;99.90;;;;;;5010987;28;20141;-68
2022/06/18 01:16:01;;;;;;;11.15;3.50;;;18.00;99.90;;;;;;5008414;28;20077;-68
2022/06/18 01:18:27;;;;;;;7.68;5.22;;;18.00;99.90;;;;;;5010973;28;20124;-68
2022/06/18 01:21:02;;;;;;;9.40;3.65;;;18.00;99.90;;;;;;5011058;28;20026;-68
2022/06/18 01:23:49;;;;;;;12.98;3.90;;;18.00;99.90;;;;;;5009699;28;20057;-67
2022/06/18 01:26:15;;;;;;;8.18;3.88;;;17.90;99.90;;;;;;5004844;28;20030;-68
2022/06/18 01:28:41;;;;;;;7.80;3.63;;;17.90;99.90;;;;;;5010740;28;20038;-68
2022/06/18 01:31:08;;;;;;;12.68;4.03;;;17.90;99.90;;;;;;5008461;28;20032;-67
2022/06/18 01:33:35;;;;;;;8.95;4.20;;;17.80;99.90;;;;;;5009228;28;20029;-68
2022/06/18 01:36:06;;;;;;;6.85;4.25;;;17.80;99.90;;;;;;5008830;28;20030;-68
2022/06/18 01:38:35;;;;;;;10.82;4.45;;;17.80;99.90;;;;;;5008934;28;20029;-67
2022/06/18 01:43:58;;;;;;;6.55;3.78;;;17.80;99.90;;;;;;5010850;28;20084;-67
2022/06/18 01:46:26;;;;;;;10.30;4.38;;;17.70;99.90;;;;;;5006470;28;20573;-67
2022/06/18 01:48:53;;;;;;;11.45;5.75;;;17.60;99.90;;;;;;5009870;28;20112;-67
2022/06/18 01:51:25;;;;;;;12.10;5.47;;;17.60;99.90;;;;;;5008253;28;20101;-67
2022/06/18 01:53:56;;;;;;;12.60;4.93;;;17.60;99.90;;;;;;5008288;28;20105;-66
2022/06/18 01:56:25;;;;;;;9.80;5.97;;;17.50;99.90;;;;;;5004569;28;20053;-67
2022/06/18 01:59:00;;;;;;;10.80;4.57;;;17.60;99.90;;;;;;5010097;28;20542;-66
2022/06/18 02:01:30;;;;;;;14.63;5.72;;;17.70;99.90;;;;;;5001852;28;20109;-66
2022/06/18 02:03:59;;;;;;;12.50;4.97;;;17.70;99.90;;;;;;5006920;28;20084;-66
2022/06/18 02:06:27;;;;;;;9.77;5.88;;;17.60;99.90;;;;;;5003503;28;20057;-68
2022/06/18 02:08:53;;;;;;;14.38;6.63;;;17.50;99.90;;;;;;5009726;28;20092;-66
2022/06/18 02:11:21;;;;;;;9.45;4.53;;;17.50;99.90;;;;;;5008799;28;20033;-66
2022/06/18 02:13:55;;;;;;;10.35;4.93;;;17.40;99.90;;;;;;5004773;28;20026;-66
2022/06/18 02:16:25;;;;;;;9.63;4.75;;;17.40;99.90;;;;;;5004341;28;20545;-67
2022/06/18 02:18:51;;;;;;;12.95;4.70;;;17.40;99.90;;;;;;5008364;28;20032;-67
2022/06/18 02:21:22;;;;;;;9.32;4.30;;;17.30;99.90;;;;;;5008897;28;20576;-67
2022/06/18 02:23:51;;;;;;;7.20;4.40;;;17.30;99.90;;;;;;4997501;28;20030;-67
2022/06/18 02:26:18;;;;;;;15.18;5.57;;;17.30;99.90;;;;;;5003013;28;20683;-67
2022/06/18 02:28:45;;;;;;;7.50;4.40;;;17.30;99.90;;;;;;5009463;28;20033;-67
2022/06/18 02:31:17;;;;;;;9.35;4.75;;;17.20;99.90;;;;;;5007256;28;20026;-67
2022/06/18 02:34:10;;;;;;;15.60;6.65;;;17.10;99.90;;;;;;5003067;28;20029;-67
2022/06/18 02:36:39;;;;;;;9.60;5.18;;;17.10;99.90;;;;;;5007516;28;20033;-66
2022/06/18 02:39:07;;;;;;;8.13;3.95;;;17.10;99.90;;;;;;5007072;28;20075;-66
2022/06/18 02:41:38;;;;;;;12.80;4.93;;;17.10;99.90;;;;;;5008372;28;20065;-67
2022/06/18 02:44:04;;;;;;;10.63;5.20;;;17.10;99.90;;;;;;5000290;28;20050;-67
2022/06/18 02:46:30;;;;;;;8.98;4.68;;;17.00;99.90;;;;;;5009154;28;20038;-67
2022/06/18 02:49:00;;;;;;;6.70;4.78;;;17.00;99.90;;;;;;5008207;28;20038;-67
2022/06/18 02:51:27;;;;;;;15.20;6.10;;;17.00;99.90;;;;;;5007107;28;20037;-68
2022/06/18 02:53:53;;;;;;;11.75;6.10;;;16.90;99.90;;;;;;5009201;28;20038;-68
2022/06/18 02:56:18;;;;;;;10.85;6.28;;;16.70;99.90;;;;;;5006376;28;20026;-68
2022/06/18 02:58:47;;;;;;;10.23;6.60;;;16.70;99.90;;;;;;5002364;28;20040;-68
2022/06/18 03:01:21;;;;;;;14.68;7.03;;;16.60;99.90;;;;;;5006296;28;20026;-68
2022/06/18 03:03:50;;;;;;;10.82;6.72;;;16.50;99.90;;;;;;5005534;28;20044;-68
2022/06/18 03:06:20;;;;;;;10.30;6.40;;;16.40;99.90;;;;;;5007399;28;20445;-66
2022/06/18 03:08:48;;;;;;;9.00;6.60;;;16.30;99.90;;;;;;5008967;28;20141;-66
2022/06/18 03:14:00;;;;;;;11.10;6.13;;;16.10;99.90;;;;;;5007693;28;20548;-66
2022/06/18 03:16:28;;;;;;;10.48;5.80;;;16.10;99.90;;;;;;5007837;28;20026;-67
2022/06/18 03:18:57;;;;;;;18.88;6.82;;;16.10;99.90;;;;;;5008735;28;20030;-67
2022/06/18 03:21:36;;;;;;;10.20;6.05;;;16.20;99.90;;;;;;5009625;28;20026;-66
2022/06/18 03:24:03;;;;;;;8.60;5.30;;;16.30;99.90;;;;;;5006380;28;20382;-67
2022/06/18 03:26:29;;;;;;;9.27;5.72;;;16.30;99.90;;;;;;5007850;28;20034;-67
2022/06/18 03:28:55;;;;;;;10.38;5.45;;;16.40;99.90;;;;;;5008515;28;20069;-66
2022/06/18 03:31:21;;;;;;;9.00;6.38;;;16.30;99.90;;;;;;5007340;28;20033;-66
2022/06/18 03:33:47;;;;;;;9.63;5.72;;;16.20;99.90;;;;;;5008538;28;20109;-66
2022/06/18 03:36:17;;;;;;;12.70;5.80;;;16.20;99.90;;;;;;5005693;28;20018;-67
2022/06/18 03:38:43;;;;;;;9.73;5.82;;;16.30;99.90;;;;;;5006310;28;20109;-67
2022/06/18 03:41:10;;;;;;;11.38;5.82;;;16.30;99.90;;;;;;5007142;28;20026;-67
2022/06/18 03:43:36;;;;;;;11.18;6.20;;;16.30;99.90;;;;;;5006261;28;20046;-67
2022/06/18 03:46:11;;;;;;;13.07;8.52;;;16.30;99.90;;;;;;5006885;28;20112;-66
2022/06/18 03:48:54;;;;;;;16.45;7.88;;;16.40;99.90;;;;;;5008259;28;20030;-67
2022/06/18 03:51:20;;;;;;;15.57;8.70;;;16.40;99.90;;;;;;5000643;28;20076;-67
2022/06/18 03:53:47;;;;;;;17.52;8.68;;;16.50;99.90;;;;;;5004458;28;20026;-67
2022/06/18 03:56:14;;;;;;;16.65;8.32;;;16.50;99.90;;;;;;5012665;28;20069;-67
2022/06/18 03:58:41;;;;;;;18.45;9.85;;;16.50;99.90;;;;;;5006356;28;20026;-68
2022/06/18 04:01:09;;;;;;;19.33;9.00;;;16.50;99.90;;;;;;5006476;28;20493;-67
2022/06/18 04:03:35;;;;;;;17.48;8.65;;;16.50;99.90;;;;;;5012571;28;20879;-67
2022/06/18 04:06:00;;;;;;;13.48;7.40;;;16.50;99.90;;;;;;5010521;28;20113;-67
2022/06/18 04:08:26;;;;;;;16.77;7.35;;;16.60;99.90;;;;;;5012401;28;20485;-68
2022/06/18 04:10:52;;;;;;;19.48;8.05;;;16.70;99.90;;;;;;5011693;28;20036;-66
2022/06/18 04:13:17;;;;;;;16.40;7.65;;;16.90;99.90;;;;;;5004766;28;20060;-67
2022/06/18 04:15:43;;;;;;;13.10;7.00;;;16.90;99.90;;;;;;5011781;28;20026;-67
2022/06/18 04:18:15;;;;;;;15.32;7.88;;;17.00;99.90;;;;;;5008293;28;20064;-67
2022/06/18 04:20:41;;;;;;;19.83;7.65;;;17.10;99.90;;;;;;5011049;28;20030;-67
2022/06/18 04:23:09;;;;;;;14.75;7.03;;;17.10;99.90;;;;;;5013317;28;20030;-67
2022/06/18 04:25:35;;;;;;;14.07;6.55;;;17.10;99.90;;;;;;5012250;28;20381;-67
2022/06/18 04:28:01;;;;;;;15.60;7.55;;;17.10;99.90;;;;;;5001153;28;20022;-67
2022/06/18 04:30:29;;;;;;;11.68;6.97;;;17.10;99.90;;;;;;5010743;28;20507;-68
2022/06/18 04:32:55;;;;;;;15.27;8.18;;;17.00;99.90;;;;;;5011786;28;20089;-67
2022/06/18 04:35:22;;;;;;;10.98;6.13;;;16.90;99.90;;;;;;5010447;28;20026;-67
2022/06/18 04:37:48;;;;;;;14.95;7.40;;;16.90;99.90;;;;;;5008084;28;20022;-67
2022/06/18 04:40:18;;;;;;;21.00;7.72;;;16.90;99.90;;;;;;5009869;28;20089;-67
2022/06/18 04:42:44;;;;;;;12.57;6.97;;;16.90;99.90;;;;;;5007101;28;20045;-67
2022/06/18 04:45:11;;;;;;;19.58;8.20;;;16.80;99.90;;;;;;5009879;28;20069;-68
2022/06/18 04:47:37;;;;;;;16.20;7.10;;;16.80;99.90;;;;;;5012099;28;20030;-68
2022/06/18 04:50:05;;;;;;;15.25;7.35;;;16.80;99.90;;;;;;5009622;28;20379;-66
2022/06/18 04:52:30;;;;;;;12.93;6.57;;;16.90;99.90;;;;;;4999748;28;20054;-67
2022/06/18 04:54:56;;;;;;;14.32;5.75;;;16.90;99.90;;;;;;5009011;28;20060;-67
2022/06/18 04:57:22;;;;;;;9.50;6.00;;;17.00;99.90;;;;;;5008102;28;20032;-67
2022/06/18 04:59:48;;;;;;;14.77;6.75;;;17.20;99.90;;;;;;5010468;28;20025;-67
2022/06/18 05:02:34;;;;;;;11.48;7.13;;;17.30;99.90;;;;;;5009353;28;20037;-66
2022/06/18 05:05:01;;;;;;;8.82;4.85;;;17.40;99.90;;;;;;5008301;28;20108;-67
2022/06/18 05:07:27;;;;;;;9.80;5.35;;;17.50;99.90;;;;;;5010385;28;20129;-66
2022/06/18 05:09:53;;;;;;;13.43;6.50;;;17.60;99.90;;;;;;5011097;28;20077;-67
2022/06/18 05:12:18;;;;;;;11.75;6.25;;;17.70;99.90;;;;;;5008793;28;20069;-67
2022/06/18 05:14:44;;;;;;;12.75;7.28;;;17.70;99.90;;;;;;5011405;28;20030;-67
2022/06/18 05:17:17;;;;;;;16.45;7.10;;;17.70;99.90;;;;;;5007382;28;20081;-66
2022/06/18 05:19:42;;;;;;;14.60;6.22;;;17.60;99.90;;;;;;5010264;28;20053;-67
2022/06/18 05:22:09;;;;;;;16.60;6.78;;;17.50;99.90;;;;;;5008453;28;20072;-66
2022/06/18 05:24:35;;;;;;;14.45;7.00;;;17.60;99.90;;;;;;5011118;28;20079;-66
2022/06/18 05:27:01;;;;;;;8.63;5.55;;;17.60;99.90;;;;;;5008031;28;20053;-65
2022/06/18 05:29:28;;;;;;;13.00;6.00;;;17.60;99.90;;;;;;5011307;28;20038;-66
2022/06/18 05:31:53;;;;;;;15.30;7.18;;;17.60;99.90;;;;;;5009906;28;20022;-66
2022/06/18 05:34:19;;;;;;;14.63;6.18;;;17.60;99.90;;;;;;5009047;28;20030;-67
2022/06/18 05:36:45;;;;;;;12.90;6.78;;;17.60;99.90;;;;;;5011149;28;20469;-67
2022/06/18 05:39:15;;;;;;;12.75;6.28;;;17.60;99.90;;;;;;5009135;28;20041;-67
2022/06/18 05:41:41;;;;;;;15.70;6.10;;;17.80;99.90;;;;;;5010228;28;20060;-68
2022/06/18 05:44:07;;;;;;;10.77;5.45;;;17.90;99.90;;;;;;5007536;28;20123;-67
2022/06/18 05:46:33;;;;;;;13.65;6.63;;;18.00;99.90;;;;;;5010188;28;20033;-67
2022/06/18 05:48:59;;;;;;;11.25;5.32;;;18.10;99.90;;;;;;5003297;28;20068;-68
2022/06/18 05:51:25;;;;;;;13.15;5.82;;;18.20;99.90;;;;;;5003647;28;20366;-67
2022/06/18 05:53:51;;;;;;;13.18;6.10;;;18.30;99.90;;;;;;5009894;28;20072;-68
2022/06/18 05:56:17;;;;;;;15.57;6.05;;;18.40;99.90;;;;;;5007986;28;20065;-69
2022/06/18 05:58:43;;;;;;;11.65;5.57;;;18.50;99.90;;;;;;5010533;28;20029;-67
2022/06/18 06:01:09;;;;;;;14.32;5.60;;;18.70;99.90;;;;;;5008803;28;20033;-67
2022/06/18 06:03:35;;;;;;;10.07;5.68;;;18.80;99.90;;;;;;5009511;28;20037;-67
2022/06/18 06:06:01;;;;;;;19.20;6.28;;;18.80;99.90;;;;;;5009291;28;20022;-67
2022/06/18 06:08:28;;;;;;;15.80;5.35;;;19.00;99.90;;;;;;5009845;28;20045;-67
2022/06/18 06:13:38;;;;;;;8.02;4.50;;;19.20;99.90;;;;;;5006543;28;20513;-67
2022/06/18 06:16:04;;;;;;;14.13;5.30;;;19.30;99.90;;;;;;5009061;28;20034;-67
2022/06/18 06:18:31;;;;;;;10.27;4.78;;;19.30;99.90;;;;;;5009826;28;20030;-67
2022/06/18 06:21:01;;;;;;;9.07;4.20;;;19.40;99.90;;;;;;5010148;28;20120;-67
2022/06/18 06:23:28;;;;;;;16.35;5.25;;;19.50;99.90;;;;;;5001062;28;20026;-67
2022/06/18 06:25:56;;;;;;;10.77;3.67;;;19.60;99.90;;;;;;5005724;28;20026;-67
2022/06/18 06:28:25;;;;;;;11.70;4.60;;;19.80;99.90;;;;;;5005183;28;20488;-67
2022/06/18 06:30:52;;;;;;;13.95;4.78;;;19.90;99.90;;;;;;5009885;28;20441;-67
2022/06/18 06:33:18;;;;;;;13.07;4.70;;;20.10;99.90;;;;;;5006455;28;20423;-67
2022/06/18 06:35:45;;;;;;;8.57;4.68;;;20.30;99.90;;;;;;5009382;28;20026;-67
2022/06/18 06:38:12;;;;;;;9.10;4.55;;;20.50;99.90;;;;;;5008006;28;20121;-67
2022/06/18 06:40:44;;;;;;;12.07;4.32;;;20.70;99.90;;;;;;5010462;28;20080;-67
2022/06/18 06:43:15;;;;;;;13.43;4.75;;;20.90;99.90;;;;;;4998217;28;20077;-67
2022/06/18 06:45:41;;;;;;;11.07;4.28;;;21.00;99.90;;;;;;5010153;28;20033;-66
2022/06/18 06:48:07;;;;;;;10.90;4.22;;;21.20;99.90;;;;;;5009350;28;20040;-67
2022/06/18 06:50:33;;;;;;;8.77;4.18;;;21.30;99.90;;;;;;5009134;28;20113;-67
2022/06/18 06:52:59;;;;;;;11.60;4.50;;;21.40;99.90;;;;;;5006382;28;20058;-68
2022/06/18 06:58:13;;;;;;;10.80;4.30;;;21.60;99.90;;;;;;5010436;28;20062;-66
2022/06/18 07:00:43;;;;;;;9.05;4.22;;;21.70;99.90;;;;;;5008709;28;20033;-67
2022/06/18 07:03:14;;;;;;;11.43;4.47;;;21.90;99.90;;;;;;5007396;28;20085;-67
2022/06/18 07:05:40;;;;;;;9.57;4.27;;;21.90;99.90;;;;;;5009466;28;20117;-68
2022/06/18 07:08:06;;;;;;;11.18;4.10;;;22.00;99.90;;;;;;5006548;28;20731;-67
2022/06/18 07:10:32;;;;;;;15.18;4.75;;;22.00;99.90;;;;;;5007654;28;20021;-69
2022/06/18 07:12:58;;;;;;;10.90;4.35;;;22.00;99.90;;;;;;5003754;28;20088;-70
2022/06/18 07:15:24;;;;;;;8.43;5.00;;;22.00;99.90;;;;;;5006500;28;20029;-67
2022/06/18 07:17:50;;;;;;;18.75;4.70;;;22.00;99.90;;;;;;5006792;28;20524;-68
2022/06/18 07:20:18;;;;;;;12.43;4.65;;;22.00;99.90;;;;;;5007307;28;20117;-66
2022/06/18 07:22:44;;;;;;;16.88;5.13;;;22.10;99.90;;;;;;5007978;28;20081;-67
2022/06/18 07:25:12;;;;;;;14.00;4.25;;;22.20;99.90;;;;;;5004912;28;20034;-67
2022/06/18 07:27:38;;;;;;;11.70;4.47;;;22.20;99.90;;;;;;5001627;28;20022;-67
2022/06/18 07:30:05;;;;;;;14.80;4.38;;;22.20;99.90;;;;;;5008248;28;20082;-68
2022/06/18 07:32:32;;;;;;;11.27;4.43;;;22.20;99.90;;;;;;5009793;28;20022;-67
2022/06/18 07:34:58;;;;;;;11.38;3.95;;;22.20;99.90;;;;;;5009327;28;20092;-68
2022/06/18 07:37:24;;;;;;;13.77;4.75;;;22.20;99.90;;;;;;5009035;28;20401;-68
2022/06/18 07:39:50;;;;;;;13.13;4.45;;;22.20;99.90;;;;;;5009852;28;20026;-68
2022/06/18 07:42:19;;;;;;;15.75;5.28;;;22.20;99.90;;;;;;5004362;28;20033;-67
2022/06/18 07:44:45;;;;;;;9.68;4.97;;;22.20;99.90;;;;;;5002031;28;20502;-63
2022/06/18 07:47:17;;;;;;;12.80;4.47;;;22.30;99.90;;;;;;5006200;28;20145;-63
2022/06/18 07:49:45;;;;;;;12.77;4.35;;;22.40;99.90;;;;;;4997905;28;20034;-63
2022/06/18 07:52:13;;;;;;;13.30;4.45;;;22.50;99.90;;;;;;5003279;28;20049;-63
2022/06/18 07:54:40;;;;;;;9.90;4.95;;;22.60;99.90;;;;;;5004027;28;20033;-64
2022/06/18 07:57:05;;;;;;;9.13;4.32;;;22.80;99.90;;;;;;5001185;28;20033;-63
2022/06/18 07:59:32;;;;;;;12.82;4.50;;;23.00;99.90;;;;;;5009456;28;20022;-64
2022/06/18 08:01:58;;;;;;;12.18;4.50;;;23.00;99.90;;;;;;5006428;28;20049;-63
2022/06/18 08:04:24;;;;;;;12.48;5.25;;;23.10;99.90;;;;;;5000866;28;20034;-64
2022/06/18 08:06:50;;;;;;;11.30;4.65;;;23.20;99.90;;;;;;5002276;28;20359;-65
2022/06/18 08:09:16;;;;;;;10.65;4.65;;;23.20;99.90;;;;;;5004806;28;20046;-63
2022/06/18 08:11:42;;;;;;;13.18;4.65;;;23.30;99.90;;;;;;5003354;28;20074;-65
2022/06/18 08:14:09;;;;;;;14.88;5.07;;;23.40;99.90;;;;;;5001238;28;20445;-64
2022/06/18 08:16:35;;;;;;;11.25;4.78;;;23.40;99.90;;;;;;5004307;28;20486;-64
2022/06/18 08:19:01;;;;;;;13.85;4.57;;;23.40;99.90;;;;;;5005977;28;20053;-63
2022/06/18 08:21:33;;;;;;;15.80;4.80;;;23.70;99.90;;;;;;4997612;28;20073;-63
2022/06/18 08:24:09;;;;;;;13.00;5.47;;;23.70;99.90;;;;;;4997735;28;20064;-63
2022/06/18 08:26:36;;;;;;;10.68;5.47;;;23.80;99.90;;;;;;5001189;28;20038;-62
2022/06/18 08:29:03;;;;;;;10.60;4.90;;;23.90;99.90;;;;;;5000963;28;20094;-63
2022/06/18 08:31:29;;;;;;;15.13;5.65;;;23.90;99.90;;;;;;5003092;28;20113;-64
2022/06/18 08:33:56;;;;;;;10.77;4.47;;;24.10;99.90;;;;;;5006729;28;20589;-64
2022/06/18 08:36:21;;;;;;;12.25;5.43;;;24.20;99.90;;;;;;5005201;28;20104;-64
2022/06/18 08:38:49;;;;;;;11.77;4.35;;;24.30;99.90;;;;;;5005568;28;20471;-64
2022/06/18 08:41:27;;;;;;;8.88;5.00;;;24.40;99.90;;;;;;5005471;28;20082;-64
2022/06/18 08:44:13;;;;;;;18.20;5.28;;;24.50;99.90;;;;;;4998872;28;20050;-64
2022/06/18 08:46:39;;;;;;;16.00;5.20;;;24.50;99.90;;;;;;5006437;28;20401;-64
2022/06/18 08:49:27;;;;;;;11.93;4.75;;;24.70;99.90;;;;;;5002782;28;20048;-64
2022/06/18 08:52:01;;;;;;;9.25;5.35;;;24.80;99.90;;;;;;5008870;28;20557;-63
2022/06/18 08:54:39;;;;;;;10.98;4.43;;;24.90;99.90;;;;;;5010708;28;20108;-64
2022/06/18 08:57:26;;;;;;;19.30;4.70;;;24.90;99.90;;;;;;4999673;28;20097;-62
2022/06/18 09:00:06;;;;;;;12.75;5.25;;;24.90;99.90;;;;;;5009380;28;20038;-64
2022/06/18 09:02:52;;;;;;;12.88;4.70;;;24.80;99.90;;;;;;5009917;28;20121;-64
2022/06/18 09:05:55;;;;;;;12.10;4.47;;;24.80;99.90;;;;;;5007576;28;20045;-63
2022/06/18 09:08:39;;;;;;;12.23;5.57;;;25.00;99.90;;;;;;5006690;28;20038;-62
2022/06/18 09:11:25;;;;;;;9.73;4.40;;;25.00;99.90;;;;;;5008524;28;20048;-64
2022/06/18 09:14:01;;;;;;;12.45;4.90;;;25.10;99.90;;;;;;5009635;28;20010;-67
2022/06/18 09:16:44;;;;;;;12.98;4.00;;;25.10;99.90;;;;;;5010482;28;20026;-67
2022/06/18 09:19:17;;;;;;;14.70;4.50;;;25.10;99.90;;;;;;5000208;28;20535;-67
2022/06/18 09:21:53;;;;;;;20.00;5.20;;;25.30;99.90;;;;;;5009276;28;20431;-67
2022/06/18 09:24:24;;;;;;;12.75;5.15;;;25.50;99.90;;;;;;5002243;28;20084;-66
2022/06/18 09:26:55;;;;;;;16.77;5.72;;;25.50;99.90;;;;;;5007025;28;20109;-68
2022/06/18 09:29:50;;;;;;;18.83;4.80;;;25.80;99.90;;;;;;5009043;28;20042;-65
2022/06/18 09:32:44;;;;;;;15.07;4.35;;;25.90;99.90;;;;;;5000198;28;20139;-65
2022/06/18 09:35:28;;;;;;;11.98;4.68;;;26.20;99.90;;;;;;4996790;28;20118;-64
2022/06/18 09:38:04;;;;;;;13.50;4.47;;;26.60;99.90;;;;;;5008417;28;20549;-66
2022/06/18 09:40:32;;;;;;;15.30;5.03;;;26.60;99.90;;;;;;5011027;28;20405;-67
2022/06/18 09:43:14;;;;;;;18.80;4.80;;;26.80;99.90;;;;;;5003952;28;20041;-67
2022/06/18 09:45:45;;;;;;;;;;;26.70;99.90;;;;;;5008176;28;20030;-67
2022/06/18 09:48:12;;;;;;;11.63;5.70;;;26.90;99.90;;;;;;5008007;28;20333;-67
2022/06/18 09:50:38;;;;;;;15.57;6.13;;;27.00;99.90;;;;;;5009876;28;20167;-67
2022/06/18 09:53:20;;;;;;;13.80;5.78;;;27.00;99.90;;;;;;5008886;28;20533;-67
2022/06/18 09:55:56;;;;;;;15.48;5.80;;;26.90;99.90;;;;;;5010691;28;20478;-67
2022/06/18 09:58:38;;;;;;;13.68;5.07;;;26.60;99.90;;;;;;5006730;28;20101;-66
2022/06/18 10:01:06;;;;;;;11.48;4.47;;;26.70;99.90;;;;;;4999145;28;20482;-67
2022/06/18 10:09:26;;;;;;;12.00;4.68;;;27.40;99.90;;;;;;5000051;28;20056;-66
2022/06/18 10:11:51;;;;;;;13.02;4.78;;;27.40;99.90;;;;;;5002776;28;20551;-66
2022/06/18 10:14:23;;;;;;;14.18;5.55;;;27.30;99.90;;;;;;5008882;28;20034;-67
2022/06/18 10:17:06;;;;;;;11.65;5.00;;;27.40;99.90;;;;;;5010625;28;20026;-67
2022/06/18 10:19:35;;;;;;;14.30;5.82;;;27.40;99.90;;;;;;5006407;28;20049;-67
2022/06/18 10:22:38;;;;;;;11.05;4.38;;;27.70;99.90;;;;;;5006709;28;20386;-65
2022/06/18 10:25:06;;;;;;;14.27;4.50;;;28.10;99.90;;;;;;4948416;29;20043;-66
2022/06/18 10:27:44;;;;;;;13.63;4.57;;;28.20;99.90;;;;;;4946232;28;20094;-66
2022/06/18 10:30:20;;;;;;;17.70;5.30;;;28.50;99.90;;;;;;4948343;29;20061;-66
2022/06/18 10:33:07;;;;;;;16.10;5.10;;;28.60;99.90;;;;;;4947506;29;20082;-66
2022/06/18 10:35:58;;;;;;;17.30;5.03;;;28.60;99.90;;;;;;4945576;28;20042;-66
2022/06/18 10:38:33;;;;;;;11.52;4.03;;;28.80;99.90;;;;;;4941303;28;20435;-67
2022/06/18 10:41:24;;;;;;;22.05;5.35;;;29.30;99.90;;;;;;4948777;28;20094;-65
2022/06/18 10:44:12;;;;;;;14.75;5.55;;;29.40;99.90;;;;;;4948908;29;20055;-65
2022/06/18 10:46:38;;;;;;;13.48;4.63;;;29.20;99.40;;;;;;4942429;28;20039;-65
2022/06/18 10:49:06;;;;;;;14.98;4.82;;;28.90;99.70;;;;;;4947753;28;20435;-65
2022/06/18 10:51:44;;;;;;;16.92;4.50;;;28.70;99.90;;;;;;4948003;29;20026;-66
2022/06/18 10:54:11;;;;;;;14.32;4.38;;;28.80;99.90;;;;;;4946465;28;20537;-67
2022/06/18 10:56:53;;;;;;;14.13;4.90;;;29.00;99.90;;;;;;4945729;29;20038;-65
2022/06/18 10:59:32;;;;;;;13.10;5.13;;;29.00;99.60;;;;;;4947420;29;20931;-66
2022/06/18 11:02:12;;;;;;;15.45;4.40;;;28.70;99.80;;;;;;4981482;28;20038;-67
2022/06/18 11:04:39;;;;;;;15.05;4.60;;;29.20;99.50;;;;;;5005418;28;20030;-67
2022/06/18 11:07:12;;;;;;;10.40;4.72;;;29.70;99.40;;;;;;5006635;28;20530;-67
2022/06/18 11:09:56;;;;;;;16.15;4.70;;;30.00;98.50;;;;;;5009221;28;20092;-68
2022/06/18 11:12:32;;;;;;;17.58;5.82;;;29.50;98.90;;;;;;5007253;28;20018;-67
2022/06/18 11:14:58;;;;;;;13.18;5.20;;;29.20;99.90;;;;;;5009068;28;20552;-67
2022/06/18 11:17:29;;;;;;;12.25;4.60;;;29.00;99.90;;;;;;5005021;28;20076;-67
2022/06/18 11:20:15;;;;;;;12.38;4.60;;;28.90;99.90;;;;;;5006116;28;20037;-67
2022/06/18 11:22:43;;;;;;;12.77;4.13;;;28.90;99.90;;;;;;5006948;28;20053;-67
2022/06/18 11:25:37;;;;;;;16.98;4.82;;;29.80;99.70;;;;;;5002359;28;20535;-67
2022/06/18 11:28:13;;;;;;;12.25;5.03;;;30.80;98.30;;;;;;5005056;28;20124;-66
2022/06/18 11:30:45;;;;;;;12.38;4.78;;;31.20;96.60;;;;;;5012417;28;20041;-66
2022/06/18 11:33:40;;;;;;;9.25;4.20;;;30.50;96.00;;;;;;5004735;28;20113;-69
2022/06/18 11:36:12;;;;;;;17.70;4.78;;;30.10;97.60;;;;;;5002639;28;20038;-68
2022/06/18 11:38:39;;;;;;;10.40;3.83;;;29.80;98.70;;;;;;5006875;28;20454;-67
2022/06/18 11:41:24;;;;;;;11.02;3.85;;;30.10;97.70;;;;;;5005902;28;20029;-65
2022/06/18 11:44:18;;;;;;;9.85;3.40;;;30.50;97.00;;;;;;5008321;28;20082;-66
2022/06/18 11:46:52;;;;;;;10.18;3.63;;;30.10;96.80;;;;;;5008153;28;20447;-68
2022/06/18 11:49:24;;;;;;;9.27;3.35;;;29.80;98.20;;;;;;5006022;28;20038;-67
2022/06/18 11:51:53;;;;;;;8.68;3.50;;;29.70;98.10;;;;;;5008875;28;20037;-66
2022/06/18 11:54:58;;;;;;;11.75;3.35;;;29.50;98.30;;;;;;5003857;28;20483;-67
2022/06/18 11:57:41;;;;;;;11.80;3.97;;;29.00;98.50;;;;;;5000262;28;20030;-67
2022/06/18 12:00:16;;;;;;;9.13;3.75;;;28.70;99.60;;;;;;5004841;28;20030;-67
2022/06/18 12:03:17;;;;;;;7.75;2.97;;;28.40;99.90;;;;;;5007548;28;20030;-66
2022/06/18 12:06:10;;;;;;;4.45;2.67;;;28.20;99.90;;;;;;5006353;28;20560;-68
2022/06/18 12:08:38;;;;;;;13.25;4.03;;;28.10;99.90;;;;;;5008844;28;20033;-68
2022/06/18 12:11:18;;;;;;;7.93;3.40;;;28.70;99.90;;;;;;5004740;28;20427;-68
2022/06/18 12:13:49;;;;;;;11.07;2.65;;;29.90;98.50;;;;;;5008616;28;20022;-67
2022/06/18 12:16:38;;;;;;;8.40;2.72;;;30.90;96.40;;;;;;5006948;28;20057;-68
2022/06/18 12:19:19;;;;;;;8.57;2.80;;;31.00;94.90;;;;;;5010359;28;20527;-66
2022/06/18 12:22:13;;;;;;;10.00;2.97;;;31.20;94.60;;;;;;5010246;28;20119;-67
2022/06/18 12:24:46;;;;;;;11.13;3.67;;;31.40;94.80;;;;;;5007055;28;20027;-67
2022/06/18 12:27:25;;;;;;;9.98;2.78;;;31.50;94.20;;;;;;5006990;28;20042;-68
2022/06/18 12:30:03;;;;;;;5.78;2.90;;;31.50;93.30;;;;;;5008918;28;20041;-67
2022/06/18 12:32:41;;;;;;;7.57;3.05;;;31.00;92.90;;;;;;5009022;28;20080;-67
2022/06/18 12:35:27;;;;;;;16.92;3.55;;;30.50;94.00;;;;;;5005030;28;20073;-67
2022/06/18 12:38:20;;;;;;;10.82;3.33;;;30.10;94.90;;;;;;5004494;28;20405;-69
2022/06/18 12:41:09;;;;;;;10.77;2.83;;;29.40;96.90;;;;;;5006091;28;20092;-67
2022/06/18 12:44:03;;;;;;;11.75;3.25;;;28.80;97.10;;;;;;5008971;28;20100;-69
2022/06/18 12:46:51;;;;;;;5.45;2.83;;;28.60;97.30;;;;;;5012729;28;20109;-68
2022/06/18 12:49:29;;;;;;;11.43;2.67;;;28.60;97.40;;;;;;4990130;28;20061;-67
2022/06/18 12:52:13;;;;;;;5.45;2.55;;;28.80;97.10;;;;;;5011318;28;20077;-68
2022/06/18 12:54:49;;;;;;;9.45;3.65;;;28.90;96.30;;;;;;5011447;28;20064;-67
2022/06/18 12:57:36;;;;;;;7.20;2.97;;;29.00;96.00;;;;;;5007199;28;20124;-67
2022/06/18 13:00:14;;;;;;;10.98;3.25;;;29.10;95.90;;;;;;5009669;28;20034;-67
2022/06/18 13:03:04;;;;;;;9.05;2.53;;;28.70;96.10;;;;;;5004395;28;20401;-67
2022/06/18 13:05:46;;;;;;;11.10;3.00;;;28.80;95.50;;;;;;4997543;28;20041;-63
2022/06/18 13:08:34;;;;;;;13.32;3.00;;;28.90;95.20;;;;;;5008195;28;20026;-63
2022/06/18 13:11:28;;;;;;;8.10;2.47;;;28.60;95.20;;;;;;5010230;28;20519;-62
2022/06/18 13:14:31;;;;;;;8.60;2.78;;;28.40;95.30;;;;;;5007737;28;20034;-65
2022/06/18 13:17:04;;;;;;;8.57;2.60;;;28.20;95.70;;;;;;5011962;28;20029;-63
2022/06/18 13:19:37;;;;;;;9.20;3.25;;;27.90;96.60;;;;;;5001626;28;20089;-62
2022/06/18 13:22:04;;;;;;;8.45;3.03;;;27.80;97.00;;;;;;5008795;28;20504;-63
2022/06/18 13:30:31;;;;;;;10.77;2.50;;;26.90;98.90;;;;;;5010264;28;20103;-63
2022/06/18 13:33:06;;;;;;;7.28;2.45;;;26.50;99.90;;;;;;5007895;28;20025;-63